weather.gov     
National Weather Service

Terminal Aerodrome Forecast
NWS Homepage
This page is being discontinued on March 12, 2014.
The same data is available at this site. Please update your bookmarks.
Thank you, and we apologize for the inconvenience.
Please send an email to SR-SRH.Webmaster@noaa.gov with any concerns.


Current Version
Previous Version:    01  02  03  04  05  06  07  08  09  10  11  12  13  14  15  16  17  18  19  20  21  22  23  24  25  26  27  28  29  30  
   31  32  33  34  35  36  37  38  39  40  41  42  43  44  45  46  47  
[Printable]
750
FTUS41 KBGM 202000 AAA
TAFBGM
TAF AMD
KBGM 202017Z 2020/2118 24010G18KT 4SM -SHRA BR SCT025 OVC050
      TEMPO 2020/2021 1/2SM +TSRA FG BKN020CB OVC040
     FM202100 20006KT P6SM BKN050
      TEMPO 2021/2024 4SM -SHRA BR BKN025
     FM210000 15005KT P6SM BKN050
     FM210700 15005KT P6SM OVC015
      TEMPO 2108/2112 OVC009
     FM211600 20005KT P6SM -SHRA BKN025=


U.S. Dept. of Commerce
NOAA National Weather Service
1325 East West Highway
Silver Spring, MD 20910
E-mail: w-nws.webmaster@noaa.gov
Page last modified: May 16, 2007
NATIONAL WEATHER SERVICE: for Safety, for Work, for Fun - FOR LIFE